sensor_id;sensor_type;location;lat;lon;timestamp;P1;durP1;ratioP1;P2;durP2;ratioP2
21337;SDS011;72379;50.880;4.350;2024-03-02T00:00:10;1.43;;;0.90;;
21337;SDS011;72379;50.880;4.350;2024-03-02T00:02:45;1.40;;;0.80;;
21337;SDS011;72379;50.880;4.350;2024-03-02T00:05:12;1.97;;;1.00;;
21337;SDS011;72379;50.880;4.350;2024-03-02T00:07:41;3.00;;;0.97;;
21337;SDS011;72379;50.880;4.350;2024-03-02T00:10:08;1.00;;;0.80;;
21337;SDS011;72379;50.880;4.350;2024-03-02T00:12:41;1.30;;;0.83;;
21337;SDS011;72379;50.880;4.350;2024-03-02T00:15:15;4.13;;;0.87;;
21337;SDS011;72379;50.880;4.350;2024-03-02T00:18:04;1.37;;;0.87;;
21337;SDS011;72379;50.880;4.350;2024-03-02T00:20:30;1.40;;;0.90;;
21337;SDS011;72379;50.880;4.350;2024-03-02T00:23:03;2.23;;;0.93;;
21337;SDS011;72379;50.880;4.350;2024-03-02T00:25:40;1.43;;;0.77;;
21337;SDS011;72379;50.880;4.350;2024-03-02T00:28:51;2.00;;;0.70;;
21337;SDS011;72379;50.880;4.350;2024-03-02T00:30:57;1.13;;;0.57;;
21337;SDS011;72379;50.880;4.350;2024-03-02T00:33:26;1.47;;;0.50;;
21337;SDS011;72379;50.880;4.350;2024-03-02T00:35:53;0.50;;;0.50;;
21337;SDS011;72379;50.880;4.350;2024-03-02T00:38:19;2.50;;;0.70;;
21337;SDS011;72379;50.880;4.350;2024-03-02T00:40:45;1.43;;;0.83;;
21337;SDS011;72379;50.880;4.350;2024-03-02T00:43:35;2.13;;;0.87;;
21337;SDS011;72379;50.880;4.350;2024-03-02T00:46:04;1.23;;;0.70;;
21337;SDS011;72379;50.880;4.350;2024-03-02T00:48:30;1.33;;;0.80;;
21337;SDS011;72379;50.880;4.350;2024-03-02T00:50:56;2.00;;;0.80;;
21337;SDS011;72379;50.880;4.350;2024-03-02T00:53:23;0.87;;;0.60;;
21337;SDS011;72379;50.880;4.350;2024-03-02T00:55:51;0.73;;;0.57;;
21337;SDS011;72379;50.880;4.350;2024-03-02T00:58:17;1.20;;;0.47;;
21337;SDS011;72379;50.880;4.350;2024-03-02T01:00:43;2.10;;;0.70;;
21337;SDS011;72379;50.880;4.350;2024-03-02T01:03:09;2.13;;;0.70;;
21337;SDS011;72379;50.880;4.350;2024-03-02T01:05:35;0.87;;;0.57;;
21337;SDS011;72379;50.880;4.350;2024-03-02T01:08:02;1.70;;;0.80;;
21337;SDS011;72379;50.880;4.350;2024-03-02T01:10:29;1.67;;;0.77;;
21337;SDS011;72379;50.880;4.350;2024-03-02T01:12:54;1.33;;;0.90;;
21337;SDS011;72379;50.880;4.350;2024-03-02T01:15:20;1.00;;;0.60;;
21337;SDS011;72379;50.880;4.350;2024-03-02T01:17:47;2.67;;;0.60;;
21337;SDS011;72379;50.880;4.350;2024-03-02T01:20:13;1.33;;;0.40;;
21337;SDS011;72379;50.880;4.350;2024-03-02T01:22:39;1.70;;;0.70;;
21337;SDS011;72379;50.880;4.350;2024-03-02T01:25:05;2.83;;;0.63;;
21337;SDS011;72379;50.880;4.350;2024-03-02T01:27:30;0.80;;;0.43;;
21337;SDS011;72379;50.880;4.350;2024-03-02T01:29:57;0.77;;;0.60;;
21337;SDS011;72379;50.880;4.350;2024-03-02T01:32:25;0.60;;;0.43;;
21337;SDS011;72379;50.880;4.350;2024-03-02T01:34:52;2.90;;;0.80;;
21337;SDS011;72379;50.880;4.350;2024-03-02T01:37:17;2.07;;;0.60;;
21337;SDS011;72379;50.880;4.350;2024-03-02T01:39:43;0.70;;;0.63;;
21337;SDS011;72379;50.880;4.350;2024-03-02T01:42:09;2.03;;;0.70;;
21337;SDS011;72379;50.880;4.350;2024-03-02T01:44:36;2.00;;;0.70;;
21337;SDS011;72379;50.880;4.350;2024-03-02T01:47:01;2.63;;;0.63;;
21337;SDS011;72379;50.880;4.350;2024-03-02T01:52:08;1.30;;;0.70;;
21337;SDS011;72379;50.880;4.350;2024-03-02T01:54:33;1.77;;;0.60;;
21337;SDS011;72379;50.880;4.350;2024-03-02T01:56:59;2.73;;;0.60;;
21337;SDS011;72379;50.880;4.350;2024-03-02T01:59:25;2.50;;;1.13;;
21337;SDS011;72379;50.880;4.350;2024-03-02T02:01:51;3.03;;;0.77;;
21337;SDS011;72379;50.880;4.350;2024-03-02T02:04:17;2.60;;;0.90;;
21337;SDS011;72379;50.880;4.350;2024-03-02T02:06:46;1.53;;;0.70;;
21337;SDS011;72379;50.880;4.350;2024-03-02T02:09:11;1.13;;;0.50;;
21337;SDS011;72379;50.880;4.350;2024-03-02T02:11:37;1.70;;;0.70;;
21337;SDS011;72379;50.880;4.350;2024-03-02T02:14:03;2.07;;;0.73;;
21337;SDS011;72379;50.880;4.350;2024-03-02T02:16:31;2.67;;;0.70;;
21337;SDS011;72379;50.880;4.350;2024-03-02T02:18:57;0.80;;;0.60;;
21337;SDS011;72379;50.880;4.350;2024-03-02T02:21:23;1.70;;;0.60;;
21337;SDS011;72379;50.880;4.350;2024-03-02T02:23:49;3.97;;;0.80;;
21337;SDS011;72379;50.880;4.350;2024-03-02T02:26:15;2.63;;;0.90;;
21337;SDS011;72379;50.880;4.350;2024-03-02T02:28:41;1.43;;;0.60;;
21337;SDS011;72379;50.880;4.350;2024-03-02T02:31:14;1.00;;;0.70;;
21337;SDS011;72379;50.880;4.350;2024-03-02T02:33:40;2.53;;;1.00;;
21337;SDS011;72379;50.880;4.350;2024-03-02T02:36:13;2.03;;;0.80;;
21337;SDS011;72379;50.880;4.350;2024-03-02T02:38:40;2.83;;;0.80;;
21337;SDS011;72379;50.880;4.350;2024-03-02T02:41:09;4.27;;;0.90;;
21337;SDS011;72379;50.880;4.350;2024-03-02T02:43:35;1.47;;;0.57;;
21337;SDS011;72379;50.880;4.350;2024-03-02T02:46:00;1.73;;;0.87;;
21337;SDS011;72379;50.880;4.350;2024-03-02T02:48:28;3.27;;;0.80;;
21337;SDS011;72379;50.880;4.350;2024-03-02T02:50:54;1.57;;;0.80;;
21337;SDS011;72379;50.880;4.350;2024-03-02T02:53:20;4.33;;;0.87;;
21337;SDS011;72379;50.880;4.350;2024-03-02T02:55:45;1.50;;;0.77;;
21337;SDS011;72379;50.880;4.350;2024-03-02T02:58:11;2.53;;;0.87;;
21337;SDS011;72379;50.880;4.350;2024-03-02T03:00:37;1.47;;;0.90;;
21337;SDS011;72379;50.880;4.350;2024-03-02T03:03:04;1.60;;;0.90;;
21337;SDS011;72379;50.880;4.350;2024-03-02T03:05:29;1.27;;;0.70;;
21337;SDS011;72379;50.880;4.350;2024-03-02T03:07:55;2.07;;;0.93;;
21337;SDS011;72379;50.880;4.350;2024-03-02T03:10:22;3.77;;;0.77;;
21337;SDS011;72379;50.880;4.350;2024-03-02T03:12:50;1.37;;;0.87;;
21337;SDS011;72379;50.880;4.350;2024-03-02T03:15:17;0.93;;;0.60;;
21337;SDS011;72379;50.880;4.350;2024-03-02T03:17:43;2.30;;;1.00;;
21337;SDS011;72379;50.880;4.350;2024-03-02T03:20:08;3.47;;;0.80;;
21337;SDS011;72379;50.880;4.350;2024-03-02T03:22:35;1.97;;;0.80;;
21337;SDS011;72379;50.880;4.350;2024-03-02T03:25:01;4.27;;;0.90;;
21337;SDS011;72379;50.880;4.350;2024-03-02T03:27:28;2.00;;;0.80;;
21337;SDS011;72379;50.880;4.350;2024-03-02T03:29:54;5.90;;;0.90;;
21337;SDS011;72379;50.880;4.350;2024-03-02T03:32:20;4.00;;;1.67;;
21337;SDS011;72379;50.880;4.350;2024-03-02T03:34:46;2.00;;;1.03;;
21337;SDS011;72379;50.880;4.350;2024-03-02T03:37:13;2.07;;;0.90;;
21337;SDS011;72379;50.880;4.350;2024-03-02T03:39:39;4.23;;;1.07;;
21337;SDS011;72379;50.880;4.350;2024-03-02T03:42:05;5.03;;;1.00;;
21337;SDS011;72379;50.880;4.350;2024-03-02T03:44:31;2.03;;;0.90;;
21337;SDS011;72379;50.880;4.350;2024-03-02T03:46:57;3.10;;;1.10;;
21337;SDS011;72379;50.880;4.350;2024-03-02T03:49:23;1.50;;;0.70;;
21337;SDS011;72379;50.880;4.350;2024-03-02T03:51:49;2.70;;;0.80;;
21337;SDS011;72379;50.880;4.350;2024-03-02T03:54:14;2.70;;;0.87;;
21337;SDS011;72379;50.880;4.350;2024-03-02T03:56:40;5.43;;;1.10;;
21337;SDS011;72379;50.880;4.350;2024-03-02T03:59:06;2.83;;;1.00;;
21337;SDS011;72379;50.880;4.350;2024-03-02T04:01:32;2.50;;;0.80;;
21337;SDS011;72379;50.880;4.350;2024-03-02T04:03:58;5.07;;;1.10;;
21337;SDS011;72379;50.880;4.350;2024-03-02T04:06:26;2.27;;;0.90;;
21337;SDS011;72379;50.880;4.350;2024-03-02T04:08:52;3.17;;;0.80;;
21337;SDS011;72379;50.880;4.350;2024-03-02T04:11:18;1.47;;;0.83;;
21337;SDS011;72379;50.880;4.350;2024-03-02T04:13:44;3.30;;;1.17;;
21337;SDS011;72379;50.880;4.350;2024-03-02T04:16:10;4.10;;;1.10;;
21337;SDS011;72379;50.880;4.350;2024-03-02T04:18:37;4.10;;;1.00;;
21337;SDS011;72379;50.880;4.350;2024-03-02T04:21:04;2.60;;;0.90;;
21337;SDS011;72379;50.880;4.350;2024-03-02T04:23:30;6.40;;;1.20;;
21337;SDS011;72379;50.880;4.350;2024-03-02T04:25:56;2.93;;;0.97;;
21337;SDS011;72379;50.880;4.350;2024-03-02T04:28:22;1.83;;;0.70;;
21337;SDS011;72379;50.880;4.350;2024-03-02T04:30:48;7.33;;;1.50;;
21337;SDS011;72379;50.880;4.350;2024-03-02T04:33:14;2.30;;;0.70;;
21337;SDS011;72379;50.880;4.350;2024-03-02T04:35:41;6.37;;;1.10;;
21337;SDS011;72379;50.880;4.350;2024-03-02T04:38:07;4.20;;;1.00;;
21337;SDS011;72379;50.880;4.350;2024-03-02T04:40:33;3.33;;;0.70;;
21337;SDS011;72379;50.880;4.350;2024-03-02T04:42:59;1.87;;;0.70;;
21337;SDS011;72379;50.880;4.350;2024-03-02T04:45:25;1.27;;;0.80;;
21337;SDS011;72379;50.880;4.350;2024-03-02T04:47:51;4.50;;;0.90;;
21337;SDS011;72379;50.880;4.350;2024-03-02T04:50:23;4.37;;;1.23;;
21337;SDS011;72379;50.880;4.350;2024-03-02T04:52:49;3.20;;;0.80;;
21337;SDS011;72379;50.880;4.350;2024-03-02T04:55:15;3.50;;;1.00;;
21337;SDS011;72379;50.880;4.350;2024-03-02T04:57:52;1.77;;;0.90;;
21337;SDS011;72379;50.880;4.350;2024-03-02T05:00:20;2.80;;;1.10;;
21337;SDS011;72379;50.880;4.350;2024-03-02T05:02:45;1.90;;;0.90;;
21337;SDS011;72379;50.880;4.350;2024-03-02T05:05:13;6.23;;;1.30;;
21337;SDS011;72379;50.880;4.350;2024-03-02T05:07:40;6.67;;;1.20;;
21337;SDS011;72379;50.880;4.350;2024-03-02T05:10:07;1.07;;;0.90;;
21337;SDS011;72379;50.880;4.350;2024-03-02T05:12:34;4.53;;;1.00;;
21337;SDS011;72379;50.880;4.350;2024-03-02T05:15:20;3.47;;;1.20;;
21337;SDS011;72379;50.880;4.350;2024-03-02T05:17:46;4.13;;;0.83;;
21337;SDS011;72379;50.880;4.350;2024-03-02T05:20:12;2.23;;;0.80;;
21337;SDS011;72379;50.880;4.350;2024-03-02T05:22:38;4.70;;;1.27;;
21337;SDS011;72379;50.880;4.350;2024-03-02T05:25:04;3.17;;;0.80;;
21337;SDS011;72379;50.880;4.350;2024-03-02T05:27:31;2.17;;;1.07;;
21337;SDS011;72379;50.880;4.350;2024-03-02T05:29:58;2.57;;;1.03;;
21337;SDS011;72379;50.880;4.350;2024-03-02T05:32:24;4.50;;;1.10;;
21337;SDS011;72379;50.880;4.350;2024-03-02T05:34:50;2.63;;;0.90;;
21337;SDS011;72379;50.880;4.350;2024-03-02T05:37:16;3.03;;;1.03;;
21337;SDS011;72379;50.880;4.350;2024-03-02T05:39:42;2.43;;;0.83;;
21337;SDS011;72379;50.880;4.350;2024-03-02T05:42:09;4.00;;;1.03;;
21337;SDS011;72379;50.880;4.350;2024-03-02T05:44:35;4.27;;;1.23;;
21337;SDS011;72379;50.880;4.350;2024-03-02T05:47:01;5.23;;;1.20;;
21337;SDS011;72379;50.880;4.350;2024-03-02T05:49:28;4.10;;;1.20;;
21337;SDS011;72379;50.880;4.350;2024-03-02T05:51:54;4.83;;;1.47;;
21337;SDS011;72379;50.880;4.350;2024-03-02T05:54:20;3.77;;;1.30;;
21337;SDS011;72379;50.880;4.350;2024-03-02T05:56:46;4.03;;;1.00;;
21337;SDS011;72379;50.880;4.350;2024-03-02T05:59:12;1.13;;;0.90;;
21337;SDS011;72379;50.880;4.350;2024-03-02T06:01:47;4.07;;;0.97;;
21337;SDS011;72379;50.880;4.350;2024-03-02T06:04:15;2.70;;;1.10;;
21337;SDS011;72379;50.880;4.350;2024-03-02T06:06:42;5.63;;;1.10;;
21337;SDS011;72379;50.880;4.350;2024-03-02T06:09:08;3.40;;;1.00;;
21337;SDS011;72379;50.880;4.350;2024-03-02T06:14:25;4.30;;;1.03;;
21337;SDS011;72379;50.880;4.350;2024-03-02T06:16:51;4.73;;;1.07;;
21337;SDS011;72379;50.880;4.350;2024-03-02T06:19:17;3.03;;;1.20;;
21337;SDS011;72379;50.880;4.350;2024-03-02T06:21:43;5.43;;;1.00;;
21337;SDS011;72379;50.880;4.350;2024-03-02T06:24:09;5.93;;;1.27;;
21337;SDS011;72379;50.880;4.350;2024-03-02T06:26:35;4.20;;;1.13;;
21337;SDS011;72379;50.880;4.350;2024-03-02T06:29:00;2.27;;;1.03;;
21337;SDS011;72379;50.880;4.350;2024-03-02T06:31:27;6.60;;;1.00;;
21337;SDS011;72379;50.880;4.350;2024-03-02T06:33:53;6.83;;;1.10;;
21337;SDS011;72379;50.880;4.350;2024-03-02T06:36:19;3.80;;;1.20;;
21337;SDS011;72379;50.880;4.350;2024-03-02T06:38:45;4.30;;;1.00;;
21337;SDS011;72379;50.880;4.350;2024-03-02T06:41:10;3.67;;;0.93;;
21337;SDS011;72379;50.880;4.350;2024-03-02T06:43:36;4.47;;;0.73;;
21337;SDS011;72379;50.880;4.350;2024-03-02T06:46:03;5.03;;;1.23;;
21337;SDS011;72379;50.880;4.350;2024-03-02T06:48:31;5.20;;;1.40;;
21337;SDS011;72379;50.880;4.350;2024-03-02T06:50:57;3.60;;;1.20;;
21337;SDS011;72379;50.880;4.350;2024-03-02T06:53:23;5.40;;;1.27;;
21337;SDS011;72379;50.880;4.350;2024-03-02T06:55:48;2.40;;;0.90;;
21337;SDS011;72379;50.880;4.350;2024-03-02T06:58:14;4.87;;;1.63;;
21337;SDS011;72379;50.880;4.350;2024-03-02T07:00:43;3.37;;;1.20;;
21337;SDS011;72379;50.880;4.350;2024-03-02T07:03:09;3.33;;;1.30;;
21337;SDS011;72379;50.880;4.350;2024-03-02T07:05:36;6.13;;;1.07;;
21337;SDS011;72379;50.880;4.350;2024-03-02T07:08:01;7.17;;;1.63;;
21337;SDS011;72379;50.880;4.350;2024-03-02T07:10:28;5.57;;;1.50;;
21337;SDS011;72379;50.880;4.350;2024-03-02T07:12:54;1.90;;;0.87;;
21337;SDS011;72379;50.880;4.350;2024-03-02T07:15:20;4.37;;;1.43;;
21337;SDS011;72379;50.880;4.350;2024-03-02T07:18:09;3.03;;;1.10;;
21337;SDS011;72379;50.880;4.350;2024-03-02T07:20:35;2.73;;;1.10;;
21337;SDS011;72379;50.880;4.350;2024-03-02T07:23:01;8.83;;;1.47;;
21337;SDS011;72379;50.880;4.350;2024-03-02T07:25:27;5.30;;;1.37;;
21337;SDS011;72379;50.880;4.350;2024-03-02T07:27:53;10.03;;;1.83;;
21337;SDS011;72379;50.880;4.350;2024-03-02T07:30:19;4.93;;;1.50;;
21337;SDS011;72379;50.880;4.350;2024-03-02T07:32:45;5.80;;;1.10;;
21337;SDS011;72379;50.880;4.350;2024-03-02T07:35:14;2.77;;;1.27;;
21337;SDS011;72379;50.880;4.350;2024-03-02T07:37:41;4.53;;;1.07;;
21337;SDS011;72379;50.880;4.350;2024-03-02T07:40:07;4.17;;;1.27;;
21337;SDS011;72379;50.880;4.350;2024-03-02T07:42:40;3.27;;;1.00;;
21337;SDS011;72379;50.880;4.350;2024-03-02T07:45:07;9.37;;;1.10;;
21337;SDS011;72379;50.880;4.350;2024-03-02T07:47:34;5.80;;;1.90;;
21337;SDS011;72379;50.880;4.350;2024-03-02T07:50:00;5.60;;;1.63;;
21337;SDS011;72379;50.880;4.350;2024-03-02T07:52:26;4.27;;;1.30;;
21337;SDS011;72379;50.880;4.350;2024-03-02T07:54:51;5.93;;;1.40;;
21337;SDS011;72379;50.880;4.350;2024-03-02T07:57:17;5.73;;;1.27;;
21337;SDS011;72379;50.880;4.350;2024-03-02T07:59:43;11.73;;;1.27;;
21337;SDS011;72379;50.880;4.350;2024-03-02T08:02:09;3.43;;;1.10;;
21337;SDS011;72379;50.880;4.350;2024-03-02T08:04:35;1.57;;;0.83;;
21337;SDS011;72379;50.880;4.350;2024-03-02T08:07:02;5.73;;;1.20;;
21337;SDS011;72379;50.880;4.350;2024-03-02T08:09:28;6.87;;;1.40;;
21337;SDS011;72379;50.880;4.350;2024-03-02T08:11:54;4.93;;;1.40;;
21337;SDS011;72379;50.880;4.350;2024-03-02T08:14:21;6.20;;;1.40;;
21337;SDS011;72379;50.880;4.350;2024-03-02T08:16:47;4.30;;;1.20;;
21337;SDS011;72379;50.880;4.350;2024-03-02T08:19:14;7.90;;;1.40;;
21337;SDS011;72379;50.880;4.350;2024-03-02T08:21:41;2.77;;;0.83;;
21337;SDS011;72379;50.880;4.350;2024-03-02T08:24:08;3.73;;;1.30;;
21337;SDS011;72379;50.880;4.350;2024-03-02T08:26:34;4.33;;;1.40;;
21337;SDS011;72379;50.880;4.350;2024-03-02T08:29:00;3.03;;;1.00;;
21337;SDS011;72379;50.880;4.350;2024-03-02T08:31:29;5.27;;;1.20;;
21337;SDS011;72379;50.880;4.350;2024-03-02T08:33:55;4.47;;;1.30;;
21337;SDS011;72379;50.880;4.350;2024-03-02T08:36:25;4.27;;;1.43;;
21337;SDS011;72379;50.880;4.350;2024-03-02T08:38:51;5.60;;;1.43;;
21337;SDS011;72379;50.880;4.350;2024-03-02T08:41:17;9.27;;;1.93;;
21337;SDS011;72379;50.880;4.350;2024-03-02T08:43:43;8.97;;;1.70;;
21337;SDS011;72379;50.880;4.350;2024-03-02T08:46:09;5.33;;;1.30;;
21337;SDS011;72379;50.880;4.350;2024-03-02T08:48:35;9.70;;;1.40;;
21337;SDS011;72379;50.880;4.350;2024-03-02T08:51:01;7.17;;;1.37;;
21337;SDS011;72379;50.880;4.350;2024-03-02T08:53:30;2.87;;;1.30;;
21337;SDS011;72379;50.880;4.350;2024-03-02T08:55:56;4.90;;;1.33;;
21337;SDS011;72379;50.880;4.350;2024-03-02T08:58:22;6.63;;;1.57;;
21337;SDS011;72379;50.880;4.350;2024-03-02T09:00:48;9.57;;;1.30;;
21337;SDS011;72379;50.880;4.350;2024-03-02T09:03:15;7.10;;;1.17;;
21337;SDS011;72379;50.880;4.350;2024-03-02T09:05:41;1.90;;;0.97;;
21337;SDS011;72379;50.880;4.350;2024-03-02T09:08:08;3.57;;;1.10;;
21337;SDS011;72379;50.880;4.350;2024-03-02T09:10:33;2.10;;;0.90;;
21337;SDS011;72379;50.880;4.350;2024-03-02T09:12:59;8.97;;;1.60;;
21337;SDS011;72379;50.880;4.350;2024-03-02T09:15:25;5.30;;;1.57;;
21337;SDS011;72379;50.880;4.350;2024-03-02T09:17:51;4.13;;;1.40;;
21337;SDS011;72379;50.880;4.350;2024-03-02T09:20:21;5.30;;;1.67;;
21337;SDS011;72379;50.880;4.350;2024-03-02T09:22:48;4.37;;;1.17;;
21337;SDS011;72379;50.880;4.350;2024-03-02T09:25:14;8.60;;;1.70;;
21337;SDS011;72379;50.880;4.350;2024-03-02T09:27:41;3.93;;;1.63;;
21337;SDS011;72379;50.880;4.350;2024-03-02T09:30:09;7.57;;;2.23;;
21337;SDS011;72379;50.880;4.350;2024-03-02T09:32:36;4.83;;;0.90;;
21337;SDS011;72379;50.880;4.350;2024-03-02T09:35:03;5.67;;;1.50;;
21337;SDS011;72379;50.880;4.350;2024-03-02T09:37:29;3.57;;;1.13;;
21337;SDS011;72379;50.880;4.350;2024-03-02T09:39:55;2.63;;;0.70;;
21337;SDS011;72379;50.880;4.350;2024-03-02T09:42:21;5.93;;;1.20;;
21337;SDS011;72379;50.880;4.350;2024-03-02T09:44:48;6.73;;;1.20;;
21337;SDS011;72379;50.880;4.350;2024-03-02T09:47:14;2.93;;;1.07;;
21337;SDS011;72379;50.880;4.350;2024-03-02T09:49:40;7.13;;;1.40;;
21337;SDS011;72379;50.880;4.350;2024-03-02T09:52:05;7.47;;;1.43;;
21337;SDS011;72379;50.880;4.350;2024-03-02T09:54:32;5.33;;;1.23;;
21337;SDS011;72379;50.880;4.350;2024-03-02T09:56:58;5.90;;;1.20;;
21337;SDS011;72379;50.880;4.350;2024-03-02T09:59:26;7.03;;;1.10;;
21337;SDS011;72379;50.880;4.350;2024-03-02T10:01:57;2.97;;;1.30;;
21337;SDS011;72379;50.880;4.350;2024-03-02T10:04:25;8.13;;;1.77;;
21337;SDS011;72379;50.880;4.350;2024-03-02T10:06:52;3.70;;;1.17;;
21337;SDS011;72379;50.880;4.350;2024-03-02T10:09:41;5.60;;;1.50;;
21337;SDS011;72379;50.880;4.350;2024-03-02T10:12:14;7.87;;;1.60;;
21337;SDS011;72379;50.880;4.350;2024-03-02T10:14:41;4.97;;;1.90;;
21337;SDS011;72379;50.880;4.350;2024-03-02T10:17:08;5.37;;;1.50;;
21337;SDS011;72379;50.880;4.350;2024-03-02T10:19:35;7.63;;;2.20;;
21337;SDS011;72379;50.880;4.350;2024-03-02T10:22:02;11.93;;;2.00;;
21337;SDS011;72379;50.880;4.350;2024-03-02T10:24:38;7.50;;;1.20;;
21337;SDS011;72379;50.880;4.350;2024-03-02T10:27:16;6.47;;;1.00;;
21337;SDS011;72379;50.880;4.350;2024-03-02T10:29:45;6.97;;;1.37;;
21337;SDS011;72379;50.880;4.350;2024-03-02T10:32:12;2.47;;;1.00;;
21337;SDS011;72379;50.880;4.350;2024-03-02T10:34:42;5.50;;;1.20;;
21337;SDS011;72379;50.880;4.350;2024-03-02T10:37:08;8.63;;;1.50;;
21337;SDS011;72379;50.880;4.350;2024-03-02T10:39:34;6.20;;;1.07;;
21337;SDS011;72379;50.880;4.350;2024-03-02T10:42:02;4.20;;;1.17;;
21337;SDS011;72379;50.880;4.350;2024-03-02T10:44:40;4.90;;;0.80;;
21337;SDS011;72379;50.880;4.350;2024-03-02T10:47:06;5.97;;;1.40;;
21337;SDS011;72379;50.880;4.350;2024-03-02T10:49:34;4.87;;;1.30;;
21337;SDS011;72379;50.880;4.350;2024-03-02T10:52:02;3.43;;;1.10;;
21337;SDS011;72379;50.880;4.350;2024-03-02T10:54:29;8.83;;;1.17;;
21337;SDS011;72379;50.880;4.350;2024-03-02T10:57:00;6.63;;;1.03;;
21337;SDS011;72379;50.880;4.350;2024-03-02T10:59:36;4.77;;;1.00;;
21337;SDS011;72379;50.880;4.350;2024-03-02T11:02:04;3.90;;;1.10;;
21337;SDS011;72379;50.880;4.350;2024-03-02T11:04:33;2.37;;;0.90;;
21337;SDS011;72379;50.880;4.350;2024-03-02T11:09:51;1.90;;;0.83;;
21337;SDS011;72379;50.880;4.350;2024-03-02T11:12:50;11.60;;;1.57;;
21337;SDS011;72379;50.880;4.350;2024-03-02T11:15:25;8.77;;;1.40;;
21337;SDS011;72379;50.880;4.350;2024-03-02T11:17:52;6.10;;;1.37;;
21337;SDS011;72379;50.880;4.350;2024-03-02T11:20:19;7.83;;;1.37;;
21337;SDS011;72379;50.880;4.350;2024-03-02T11:22:46;4.70;;;1.43;;
21337;SDS011;72379;50.880;4.350;2024-03-02T11:25:24;5.23;;;0.90;;
21337;SDS011;72379;50.880;4.350;2024-03-02T11:27:58;5.80;;;1.50;;
21337;SDS011;72379;50.880;4.350;2024-03-02T11:35:32;7.20;;;1.50;;
21337;SDS011;72379;50.880;4.350;2024-03-02T11:37:58;6.00;;;1.50;;
21337;SDS011;72379;50.880;4.350;2024-03-02T11:40:26;7.60;;;1.53;;
21337;SDS011;72379;50.880;4.350;2024-03-02T11:42:52;12.03;;;1.83;;
21337;SDS011;72379;50.880;4.350;2024-03-02T11:45:24;5.63;;;1.30;;
21337;SDS011;72379;50.880;4.350;2024-03-02T11:47:53;9.93;;;1.53;;
21337;SDS011;72379;50.880;4.350;2024-03-02T11:50:28;7.17;;;1.30;;
21337;SDS011;72379;50.880;4.350;2024-03-02T11:52:57;5.87;;;1.50;;
21337;SDS011;72379;50.880;4.350;2024-03-02T11:55:25;2.53;;;0.90;;
21337;SDS011;72379;50.880;4.350;2024-03-02T11:57:51;4.87;;;1.23;;
21337;SDS011;72379;50.880;4.350;2024-03-02T12:00:18;6.87;;;1.50;;
21337;SDS011;72379;50.880;4.350;2024-03-02T12:02:47;4.87;;;1.43;;
21337;SDS011;72379;50.880;4.350;2024-03-02T12:05:29;5.23;;;1.10;;
21337;SDS011;72379;50.880;4.350;2024-03-02T12:07:56;1.90;;;0.93;;
21337;SDS011;72379;50.880;4.350;2024-03-02T12:10:23;4.50;;;0.97;;
21337;SDS011;72379;50.880;4.350;2024-03-02T12:12:54;3.70;;;1.03;;
21337;SDS011;72379;50.880;4.350;2024-03-02T12:15:28;4.70;;;1.30;;
21337;SDS011;72379;50.880;4.350;2024-03-02T12:17:56;5.17;;;1.33;;
21337;SDS011;72379;50.880;4.350;2024-03-02T12:20:25;3.17;;;1.30;;
21337;SDS011;72379;50.880;4.350;2024-03-02T12:22:53;8.37;;;1.87;;
21337;SDS011;72379;50.880;4.350;2024-03-02T12:25:20;11.33;;;1.97;;
21337;SDS011;72379;50.880;4.350;2024-03-02T12:27:46;5.40;;;1.53;;
21337;SDS011;72379;50.880;4.350;2024-03-02T12:30:16;6.37;;;1.57;;
21337;SDS011;72379;50.880;4.350;2024-03-02T12:32:42;4.57;;;1.20;;
21337;SDS011;72379;50.880;4.350;2024-03-02T12:35:10;3.93;;;1.07;;
21337;SDS011;72379;50.880;4.350;2024-03-02T12:37:47;3.47;;;1.13;;
21337;SDS011;72379;50.880;4.350;2024-03-02T12:40:18;5.13;;;1.30;;
21337;SDS011;72379;50.880;4.350;2024-03-02T12:42:46;7.37;;;1.20;;
21337;SDS011;72379;50.880;4.350;2024-03-02T12:45:12;5.53;;;1.77;;
21337;SDS011;72379;50.880;4.350;2024-03-02T12:47:39;3.57;;;1.10;;
21337;SDS011;72379;50.880;4.350;2024-03-02T12:50:06;4.70;;;0.90;;
21337;SDS011;72379;50.880;4.350;2024-03-02T12:52:33;3.57;;;1.07;;
21337;SDS011;72379;50.880;4.350;2024-03-02T12:55:02;2.53;;;1.13;;
21337;SDS011;72379;50.880;4.350;2024-03-02T12:57:31;7.97;;;1.50;;
21337;SDS011;72379;50.880;4.350;2024-03-02T12:59:58;5.13;;;1.33;;
21337;SDS011;72379;50.880;4.350;2024-03-02T13:02:39;5.17;;;1.30;;
21337;SDS011;72379;50.880;4.350;2024-03-02T13:05:06;5.47;;;1.00;;
21337;SDS011;72379;50.880;4.350;2024-03-02T13:07:38;4.10;;;1.00;;
21337;SDS011;72379;50.880;4.350;2024-03-02T13:10:06;3.67;;;1.60;;
21337;SDS011;72379;50.880;4.350;2024-03-02T13:12:35;4.33;;;0.90;;
21337;SDS011;72379;50.880;4.350;2024-03-02T13:15:02;6.90;;;1.63;;
21337;SDS011;72379;50.880;4.350;2024-03-02T13:17:28;4.23;;;1.40;;
21337;SDS011;72379;50.880;4.350;2024-03-02T13:19:55;4.43;;;1.57;;
21337;SDS011;72379;50.880;4.350;2024-03-02T13:22:25;4.33;;;1.47;;
21337;SDS011;72379;50.880;4.350;2024-03-02T13:24:51;5.97;;;1.63;;
21337;SDS011;72379;50.880;4.350;2024-03-02T13:27:19;8.13;;;1.80;;
21337;SDS011;72379;50.880;4.350;2024-03-02T13:29:46;4.93;;;1.20;;
21337;SDS011;72379;50.880;4.350;2024-03-02T13:32:15;7.33;;;1.20;;
21337;SDS011;72379;50.880;4.350;2024-03-02T13:34:41;3.73;;;1.60;;
21337;SDS011;72379;50.880;4.350;2024-03-02T13:37:08;6.43;;;1.80;;
21337;SDS011;72379;50.880;4.350;2024-03-02T13:39:34;1.80;;;0.97;;
21337;SDS011;72379;50.880;4.350;2024-03-02T13:42:09;2.20;;;1.10;;
21337;SDS011;72379;50.880;4.350;2024-03-02T13:44:35;5.50;;;1.20;;
21337;SDS011;72379;50.880;4.350;2024-03-02T13:47:02;3.80;;;1.43;;
21337;SDS011;72379;50.880;4.350;2024-03-02T13:49:29;4.60;;;1.63;;
21337;SDS011;72379;50.880;4.350;2024-03-02T13:52:05;4.77;;;2.13;;
21337;SDS011;72379;50.880;4.350;2024-03-02T13:54:42;3.23;;;2.03;;
21337;SDS011;72379;50.880;4.350;2024-03-02T13:57:09;5.43;;;1.50;;
21337;SDS011;72379;50.880;4.350;2024-03-02T13:59:36;5.90;;;1.80;;
21337;SDS011;72379;50.880;4.350;2024-03-02T14:02:02;3.23;;;1.80;;
21337;SDS011;72379;50.880;4.350;2024-03-02T14:04:32;6.17;;;2.60;;
21337;SDS011;72379;50.880;4.350;2024-03-02T14:06:59;4.57;;;1.97;;
21337;SDS011;72379;50.880;4.350;2024-03-02T14:09:25;7.23;;;2.17;;
21337;SDS011;72379;50.880;4.350;2024-03-02T14:11:52;6.77;;;2.27;;
21337;SDS011;72379;50.880;4.350;2024-03-02T14:14:18;6.10;;;1.70;;
21337;SDS011;72379;50.880;4.350;2024-03-02T14:16:44;4.93;;;2.03;;
21337;SDS011;72379;50.880;4.350;2024-03-02T14:19:11;7.20;;;2.30;;
21337;SDS011;72379;50.880;4.350;2024-03-02T14:21:37;5.23;;;1.73;;
21337;SDS011;72379;50.880;4.350;2024-03-02T14:24:09;7.43;;;2.97;;
21337;SDS011;72379;50.880;4.350;2024-03-02T14:26:35;1.37;;;1.03;;
21337;SDS011;72379;50.880;4.350;2024-03-02T14:29:02;4.13;;;1.70;;
21337;SDS011;72379;50.880;4.350;2024-03-02T14:31:28;7.17;;;2.10;;
21337;SDS011;72379;50.880;4.350;2024-03-02T14:33:54;6.87;;;2.90;;
21337;SDS011;72379;50.880;4.350;2024-03-02T14:36:20;10.53;;;4.53;;
21337;SDS011;72379;50.880;4.350;2024-03-02T14:38:46;6.20;;;2.70;;
21337;SDS011;72379;50.880;4.350;2024-03-02T14:41:13;8.83;;;3.80;;
21337;SDS011;72379;50.880;4.350;2024-03-02T14:43:39;7.87;;;3.80;;
21337;SDS011;72379;50.880;4.350;2024-03-02T14:46:05;7.17;;;3.60;;
21337;SDS011;72379;50.880;4.350;2024-03-02T14:48:36;10.43;;;3.60;;
21337;SDS011;72379;50.880;4.350;2024-03-02T14:51:03;6.40;;;2.90;;
21337;SDS011;72379;50.880;4.350;2024-03-02T14:53:29;7.93;;;1.97;;
21337;SDS011;72379;50.880;4.350;2024-03-02T14:55:55;7.60;;;3.80;;
21337;SDS011;72379;50.880;4.350;2024-03-02T14:58:21;3.10;;;1.40;;
21337;SDS011;72379;50.880;4.350;2024-03-02T15:00:47;4.90;;;1.40;;
21337;SDS011;72379;50.880;4.350;2024-03-02T15:03:13;1.80;;;0.80;;